Fremont, Kentucky
Current Conditions -  °F | °C
As of 8:53 AM on Wednesday 22 Oct 2014 (Local Time) from KPAH Reporting Station
Clear Clear  
Wind Chill: 45°   Ceiling: Unl
Heat Index: 49°   Visibility: 10mi
Dew Point: 45°   Wind: 8mph
Humidity: 86%   Direction: 60°ENE
Pressure: 30.29"   Gusts: NA
Location:  37.0331°N, 88.716°W
Report Text: KPAH 221353Z 06007KT 10SM CLR 09/07 A3029 RMK AO2 SLP256 T00940072
Loading
Personal Weather Stations






























Interactive Weather Map
Tropical Storm Tracking
New forecast layout! Learn more

10-Day Weather Forecast

Advertisements
Track Severe Weather on mobile